Time;durP1;ratioP1;P1;durP2;ratioP2;P2;SDS_P1;SDS_P2;PMS_P1;PMS_P2;Temp;Humidity;BMP_temperature;BMP_pressure;BME280_temperature;BME280_humidity;BME280_pressure;Samples;Min_cycle;Max_cycle;Signal;HPM_P1;HPM_P2
2023/10/23 00:02:19;;;;;;;7.63;4.27;;;8.80;51.60;;;;;;5032038;28;46578;-84
2023/10/23 00:04:44;;;;;;;7.90;4.20;;;8.80;51.60;;;;;;5031298;28;47294;-85
2023/10/23 00:07:10;;;;;;;5.43;3.70;;;8.80;51.60;;;;;;5033298;28;46519;-84
2023/10/23 00:09:35;;;;;;;5.83;3.70;;;8.80;51.60;;;;;;5029656;28;46750;-85
2023/10/23 00:12:01;;;;;;;6.03;3.67;;;8.90;51.70;;;;;;5031779;28;46533;-85
2023/10/23 00:14:27;;;;;;;7.83;4.30;;;8.80;51.70;;;;;;5030113;28;48773;-87
2023/10/23 00:16:53;;;;;;;6.00;3.80;;;8.80;51.70;;;;;;5031417;28;46413;-84
2023/10/23 00:19:18;;;;;;;4.93;3.57;;;8.80;52.10;;;;;;5030603;28;46913;-85
2023/10/23 00:21:44;;;;;;;6.30;3.77;;;8.80;51.70;;;;;;5030256;28;46886;-86
2023/10/23 00:24:10;;;;;;;5.83;3.27;;;8.80;51.70;;;;;;5027109;28;48223;-83
2023/10/23 00:26:36;;;;;;;6.13;3.73;;;8.80;51.70;;;;;;5028154;28;46760;-84
2023/10/23 00:29:02;;;;;;;13.40;3.97;;;8.80;51.90;;;;;;5031229;28;46483;-85
2023/10/23 00:31:28;;;;;;;5.57;3.90;;;8.80;52.20;;;;;;5029737;28;46623;-82
2023/10/23 00:33:54;;;;;;;5.07;3.40;;;8.80;52.30;;;;;;5027225;28;47977;-85
2023/10/23 00:36:19;;;;;;;4.50;3.47;;;8.80;52.50;;;;;;5033102;28;46513;-85
2023/10/23 00:38:45;;;;;;;7.60;4.00;;;8.80;52.50;;;;;;5031914;28;46432;-86
2023/10/23 00:41:10;;;;;;;6.73;3.67;;;8.70;52.60;;;;;;5028007;28;47149;-86
2023/10/23 00:43:36;;;;;;;6.70;3.83;;;8.70;52.70;;;;;;5029074;28;46643;-85
2023/10/23 00:46:12;;;;;;;6.27;3.70;;;8.70;52.70;;;;;;5041298;28;46488;-84
2023/10/23 00:48:38;;;;;;;5.73;3.67;;;8.70;52.60;;;;;;5028178;28;46899;-84
2023/10/23 00:51:04;;;;;;;7.90;4.10;;;8.70;52.60;;;;;;5028140;28;46598;-85
2023/10/23 00:53:33;;;;;;;8.73;4.30;;;8.70;52.60;;;;;;5029266;28;46929;-85
2023/10/23 00:56:02;;;;;;;7.80;4.03;;;8.70;52.90;;;;;;5029752;28;46559;-84
2023/10/23 00:58:27;;;;;;;9.27;4.20;;;8.70;53.30;;;;;;5029984;28;46381;-85
2023/10/23 01:00:57;;;;;;;6.90;4.03;;;8.70;53.10;;;;;;5030427;28;46209;-84
2023/10/23 01:03:22;;;;;;;9.37;3.60;;;8.70;52.90;;;;;;5031368;28;46849;-87
2023/10/23 01:05:48;;;;;;;6.73;3.83;;;8.80;52.80;;;;;;5029543;28;46753;-86
2023/10/23 01:08:14;;;;;;;8.83;4.00;;;8.80;52.80;;;;;;5029120;28;46423;-82
2023/10/23 01:10:40;;;;;;;8.40;4.13;;;8.80;52.60;;;;;;5027485;28;46512;-84
2023/10/23 01:13:07;;;;;;;13.70;4.50;;;8.80;52.70;;;;;;5028542;28;46525;-85
2023/10/23 01:15:33;;;;;;;5.77;3.80;;;8.80;52.70;;;;;;5031313;28;46427;-87
2023/10/23 01:17:59;;;;;;;5.27;3.27;;;8.80;52.80;;;;;;5030860;28;46622;-85
2023/10/23 01:20:29;;;;;;;4.07;3.37;;;8.80;52.90;;;;;;5032051;28;46535;-84
2023/10/23 01:22:57;;;;;;;6.00;3.80;;;8.70;52.90;;;;;;5045459;28;48304;-86
2023/10/23 01:25:22;;;;;;;5.87;3.70;;;8.70;52.80;;;;;;5027831;28;45986;-85
2023/10/23 01:27:48;;;;;;;6.20;3.50;;;8.70;53.10;;;;;;5029022;28;46566;-86
2023/10/23 01:30:14;;;;;;;10.30;3.70;;;8.60;53.20;;;;;;5029160;28;46401;-85
2023/10/23 01:32:39;;;;;;;4.13;3.10;;;8.70;53.40;;;;;;5025555;28;48535;-85
2023/10/23 01:35:05;;;;;;;5.07;3.23;;;8.70;53.50;;;;;;5031202;28;46435;-87
2023/10/23 01:37:31;;;;;;;8.10;2.90;;;8.60;53.50;;;;;;5034053;28;45879;-82
2023/10/23 01:39:56;;;;;;;6.10;2.67;;;8.60;53.60;;;;;;5034108;28;46486;-84
2023/10/23 01:42:22;;;;;;;5.27;3.20;;;8.60;53.70;;;;;;5035392;28;46475;-83
2023/10/23 01:44:47;;;;;;;8.43;2.87;;;8.50;53.60;;;;;;5035274;28;46617;-85
2023/10/23 01:47:13;;;;;;;4.70;3.20;;;8.50;53.70;;;;;;5032909;28;46579;-84
2023/10/23 01:49:39;;;;;;;4.30;3.10;;;8.50;53.70;;;;;;5036492;28;46445;-84
2023/10/23 01:52:04;;;;;;;4.97;3.60;;;8.50;53.50;;;;;;5031507;28;46006;-85
2023/10/23 01:54:30;;;;;;;4.40;2.80;;;8.60;53.40;;;;;;5030277;28;46201;-84
2023/10/23 01:56:57;;;;;;;5.60;3.30;;;8.60;53.30;;;;;;5025134;28;46388;-84
2023/10/23 01:59:22;;;;;;;5.57;3.13;;;8.70;53.40;;;;;;5026731;28;46413;-86
2023/10/23 02:01:48;;;;;;;5.90;3.10;;;8.60;53.50;;;;;;5029764;28;47322;-86
2023/10/23 02:04:13;;;;;;;7.60;3.90;;;8.50;53.60;;;;;;5026826;28;46458;-84
2023/10/23 02:06:39;;;;;;;5.83;3.10;;;8.50;53.90;;;;;;5028688;28;46605;-84
2023/10/23 02:09:05;;;;;;;5.97;3.03;;;8.30;54.10;;;;;;5026031;28;45877;-87
2023/10/23 02:11:31;;;;;;;4.70;3.40;;;8.30;54.30;;;;;;5028519;28;46475;-83
2023/10/23 02:13:56;;;;;;;4.97;3.20;;;8.30;54.60;;;;;;5030635;28;46387;-84
2023/10/23 02:16:22;;;;;;;4.20;2.60;;;8.20;54.70;;;;;;5026171;28;46335;-84
2023/10/23 02:18:47;;;;;;;6.37;2.70;;;8.20;54.90;;;;;;5030043;28;46624;-82
2023/10/23 02:21:13;;;;;;;4.33;2.83;;;8.10;55.10;;;;;;5026140;28;47987;-83
2023/10/23 02:23:39;;;;;;;6.73;2.63;;;8.00;55.20;;;;;;5026819;28;46783;-84
2023/10/23 02:26:04;;;;;;;6.60;3.10;;;8.20;55.50;;;;;;5030864;28;46714;-83
2023/10/23 02:28:30;;;;;;;4.43;3.20;;;8.00;55.30;;;;;;5032249;28;46504;-84
2023/10/23 02:30:55;;;;;;;6.50;3.40;;;8.00;55.30;;;;;;5027929;28;48296;-85
2023/10/23 02:33:21;;;;;;;5.33;2.70;;;8.00;55.10;;;;;;5029403;28;46514;-86
2023/10/23 02:35:46;;;;;;;4.27;2.80;;;8.00;54.90;;;;;;5030841;28;46393;-84
2023/10/23 02:38:12;;;;;;;7.73;3.40;;;8.00;54.80;;;;;;5033000;28;46384;-84
2023/10/23 02:40:38;;;;;;;8.70;3.20;;;8.10;54.80;;;;;;5032895;28;46404;-85
2023/10/23 02:43:03;;;;;;;4.10;3.00;;;8.10;54.70;;;;;;5034838;28;46873;-83
2023/10/23 02:45:31;;;;;;;5.20;3.00;;;8.10;54.50;;;;;;5032423;28;46333;-85
2023/10/23 02:47:57;;;;;;;4.90;2.70;;;8.10;54.60;;;;;;5036543;28;45946;-84
2023/10/23 02:50:23;;;;;;;6.70;3.40;;;8.10;54.50;;;;;;5030947;28;46474;-88
2023/10/23 02:52:48;;;;;;;6.23;2.93;;;8.10;54.70;;;;;;5035290;28;46362;-83
2023/10/23 02:55:14;;;;;;;5.20;3.20;;;8.10;54.60;;;;;;5033703;28;46730;-84
2023/10/23 02:57:40;;;;;;;5.33;2.97;;;8.10;54.70;;;;;;5028699;28;46501;-83
2023/10/23 03:00:06;;;;;;;3.90;2.60;;;8.10;54.60;;;;;;5030876;28;48789;-84
2023/10/23 03:02:33;;;;;;;5.47;3.33;;;8.10;54.60;;;;;;5030360;28;46633;-84
2023/10/23 03:04:58;;;;;;;4.83;3.00;;;8.10;54.70;;;;;;5032064;28;45825;-83
2023/10/23 03:07:24;;;;;;;4.90;3.60;;;8.00;54.70;;;;;;5035140;28;46560;-83
2023/10/23 03:09:50;;;;;;;5.53;3.07;;;8.00;54.80;;;;;;5030445;28;50185;-84
2023/10/23 03:12:15;;;;;;;5.73;3.37;;;8.00;54.80;;;;;;5032555;28;47056;-86
2023/10/23 03:14:41;;;;;;;8.87;3.50;;;8.00;54.80;;;;;;5039651;28;46733;-84
2023/10/23 03:17:07;;;;;;;8.53;2.90;;;7.90;55.00;;;;;;5038432;28;46547;-84
2023/10/23 03:19:32;;;;;;;9.37;2.83;;;7.80;55.20;;;;;;5050163;28;49339;-83
2023/10/23 03:21:58;;;;;;;5.60;3.00;;;7.80;55.70;;;;;;5033213;28;46805;-83
2023/10/23 03:24:24;;;;;;;4.17;2.57;;;7.70;55.90;;;;;;5033311;28;45933;-82
2023/10/23 03:26:49;;;;;;;6.00;3.20;;;7.60;56.00;;;;;;5034048;28;46506;-85
2023/10/23 03:29:15;;;;;;;6.53;3.37;;;7.60;56.10;;;;;;5035031;28;46679;-84
2023/10/23 03:31:40;;;;;;;6.33;3.03;;;7.50;56.20;;;;;;5035759;28;46485;-86
2023/10/23 03:34:06;;;;;;;5.53;2.83;;;7.50;56.50;;;;;;5033533;28;46849;-83
2023/10/23 03:36:33;;;;;;;7.77;3.80;;;7.50;56.60;;;;;;5033963;28;46517;-84
2023/10/23 03:38:58;;;;;;;5.53;2.57;;;7.40;57.00;;;;;;5035906;28;46436;-83
2023/10/23 03:41:25;;;;;;;5.47;2.33;;;7.30;57.10;;;;;;5034017;28;46366;-86
2023/10/23 03:43:51;;;;;;;6.77;2.60;;;7.10;57.20;;;;;;5034563;28;46961;-83
2023/10/23 03:46:16;;;;;;;5.10;2.80;;;6.90;57.50;;;;;;5030609;28;47069;-81
2023/10/23 03:48:42;;;;;;;6.10;2.30;;;6.80;57.90;;;;;;5032164;28;46426;-83
2023/10/23 03:51:07;;;;;;;7.00;2.80;;;6.80;58.30;;;;;;5027129;28;46900;-85
2023/10/23 03:53:33;;;;;;;8.23;2.40;;;6.70;58.60;;;;;;5035622;28;46490;-84
2023/10/23 03:55:59;;;;;;;4.60;2.70;;;6.60;58.70;;;;;;5039763;28;46450;-85
2023/10/23 03:58:24;;;;;;;7.23;3.30;;;6.60;58.90;;;;;;5035822;28;46774;-86
2023/10/23 04:00:54;;;;;;;4.27;2.60;;;6.50;59.00;;;;;;5036789;28;45947;-86
2023/10/23 04:03:19;;;;;;;7.43;2.87;;;6.50;59.10;;;;;;5037579;28;46481;-84
2023/10/23 04:05:45;;;;;;;5.23;3.37;;;6.50;59.10;;;;;;5030790;28;46704;-83
2023/10/23 04:08:11;;;;;;;5.47;2.80;;;6.50;58.90;;;;;;5030741;28;47180;-84
2023/10/23 04:10:36;;;;;;;5.73;2.80;;;6.50;60.00;;;;;;5029707;28;46946;-85
2023/10/23 04:13:02;;;;;;;7.10;3.27;;;6.50;58.80;;;;;;5028086;28;46476;-84
2023/10/23 04:15:28;;;;;;;6.10;3.20;;;6.50;58.70;;;;;;5032396;28;46547;-84
2023/10/23 04:17:53;;;;;;;6.17;3.10;;;6.50;58.70;;;;;;5026607;28;49077;-85
2023/10/23 04:20:19;;;;;;;3.83;2.70;;;6.40;58.80;;;;;;5030824;28;46495;-86
2023/10/23 04:22:45;;;;;;;4.70;2.80;;;6.50;58.80;;;;;;5029698;28;46722;-87
2023/10/23 04:25:10;;;;;;;6.73;3.80;;;6.50;58.60;;;;;;5029794;28;46564;-84
2023/10/23 04:27:36;;;;;;;6.13;3.47;;;6.50;58.30;;;;;;5030842;28;48409;-85
2023/10/23 04:30:05;;;;;;;6.60;3.67;;;6.60;58.30;;;;;;5027635;28;46437;-85
2023/10/23 04:32:30;;;;;;;11.07;4.60;;;6.60;58.20;;;;;;5030475;28;46592;-84
2023/10/23 04:34:56;;;;;;;6.93;4.37;;;6.60;58.10;;;;;;5031863;28;46262;-85
2023/10/23 04:37:22;;;;;;;6.27;3.93;;;6.60;58.00;;;;;;5029270;28;46424;-86
2023/10/23 04:39:47;;;;;;;5.77;3.83;;;6.60;58.00;;;;;;5026779;28;47154;-85
2023/10/23 04:42:13;;;;;;;7.60;3.90;;;6.60;58.20;;;;;;5035574;28;45992;-84
2023/10/23 04:44:39;;;;;;;5.30;4.00;;;6.60;58.10;;;;;;5029544;28;46480;-85
2023/10/23 04:47:05;;;;;;;9.20;3.77;;;6.60;58.60;;;;;;5027117;28;48174;-83
2023/10/23 04:49:30;;;;;;;7.23;3.67;;;6.60;58.30;;;;;;5035194;28;46845;-85
2023/10/23 04:51:56;;;;;;;10.60;5.70;;;6.60;58.30;;;;;;5043888;28;46405;-86
2023/10/23 04:54:21;;;;;;;13.80;5.17;;;6.60;58.30;;;;;;5028693;28;46212;-85
2023/10/23 04:56:47;;;;;;;10.37;6.07;;;6.60;58.20;;;;;;5029637;28;47214;-86
2023/10/23 04:59:12;;;;;;;8.60;5.97;;;6.60;58.30;;;;;;5030627;28;46541;-85
2023/10/23 05:01:38;;;;;;;11.47;5.37;;;6.60;58.40;;;;;;5031708;28;46375;-85
2023/10/23 05:04:04;;;;;;;8.63;5.00;;;6.60;58.30;;;;;;5026964;28;46368;-82
2023/10/23 05:06:30;;;;;;;6.90;4.63;;;6.60;58.40;;;;;;5032852;28;46489;-83
2023/10/23 05:08:55;;;;;;;9.10;5.00;;;6.60;58.40;;;;;;5030393;28;46503;-84
2023/10/23 05:11:21;;;;;;;8.77;4.73;;;6.50;58.50;;;;;;5030014;28;46683;-83
2023/10/23 05:13:47;;;;;;;5.63;3.50;;;6.50;58.50;;;;;;5031616;28;46473;-86
2023/10/23 05:16:12;;;;;;;4.93;3.60;;;6.50;58.70;;;;;;5025228;28;48193;-83
2023/10/23 05:18:39;;;;;;;7.60;4.30;;;6.40;58.70;;;;;;5029849;28;46927;-83
2023/10/23 05:21:12;;;;;;;5.00;3.40;;;6.40;58.90;;;;;;5027382;28;46500;-84
2023/10/23 05:23:41;;;;;;;7.37;4.40;;;6.40;58.90;;;;;;5027108;28;46756;-86
2023/10/23 05:26:10;;;;;;;6.10;3.73;;;6.40;58.90;;;;;;5027664;28;46466;-86
2023/10/23 05:28:39;;;;;;;7.33;3.20;;;6.40;59.00;;;;;;5027895;28;46388;-85
2023/10/23 05:31:04;;;;;;;5.27;3.00;;;6.30;59.00;;;;;;5028052;28;46690;-84
2023/10/23 05:33:30;;;;;;;8.33;3.70;;;6.30;59.20;;;;;;5042017;28;46502;-85
2023/10/23 05:36:06;;;;;;;5.70;2.80;;;6.20;59.20;;;;;;5030669;28;46459;-86
2023/10/23 05:38:32;;;;;;;4.93;2.90;;;6.30;59.30;;;;;;5026758;28;46703;-86
2023/10/23 05:40:59;;;;;;;7.60;3.50;;;6.20;59.10;;;;;;5033189;28;46487;-84
2023/10/23 05:43:26;;;;;;;3.50;2.40;;;6.20;59.00;;;;;;5036372;28;46507;-87
2023/10/23 05:45:52;;;;;;;4.40;2.90;;;6.20;60.10;;;;;;5040725;28;48446;-85
2023/10/23 05:48:17;;;;;;;4.13;2.83;;;6.20;59.00;;;;;;5035915;28;46395;-85
2023/10/23 05:50:43;;;;;;;4.53;2.70;;;6.30;59.00;;;;;;5033996;28;46694;-85
2023/10/23 05:53:09;;;;;;;3.00;2.20;;;6.20;58.90;;;;;;5025590;28;46242;-85
2023/10/23 05:55:35;;;;;;;3.60;2.70;;;6.10;58.90;;;;;;5029923;28;47103;-83
2023/10/23 05:58:01;;;;;;;6.60;4.53;;;6.10;59.20;;;;;;5028302;28;46472;-82
2023/10/23 06:00:27;;;;;;;5.03;3.47;;;6.10;59.30;;;;;;5031811;28;46527;-83
2023/10/23 06:02:52;;;;;;;9.17;4.80;;;6.20;59.40;;;;;;5033316;28;46471;-87
2023/10/23 06:05:18;;;;;;;8.07;4.57;;;6.10;59.30;;;;;;5033650;28;47938;-87
2023/10/23 06:07:44;;;;;;;6.60;4.43;;;6.20;59.30;;;;;;5028752;28;46406;-84
2023/10/23 06:10:09;;;;;;;7.10;4.87;;;6.20;59.20;;;;;;5031065;28;46539;-84
2023/10/23 06:12:35;;;;;;;8.10;3.87;;;6.30;59.10;;;;;;5036507;28;46604;-88
2023/10/23 06:15:00;;;;;;;5.27;3.80;;;6.40;59.00;;;;;;5035947;28;46220;-86
2023/10/23 06:17:26;;;;;;;7.60;5.97;;;6.40;58.70;;;;;;5042368;28;46389;-88
2023/10/23 06:19:51;;;;;;;11.00;6.87;;;6.60;58.60;;;;;;5032918;28;46762;-87
2023/10/23 06:22:17;;;;;;;5.40;3.97;;;6.70;58.50;;;;;;5029537;28;46960;-85
2023/10/23 06:24:45;;;;;;;10.57;2.50;;;6.70;58.50;;;;;;5031375;28;46745;-87
2023/10/23 06:27:10;;;;;;;5.37;2.67;;;6.70;58.50;;;;;;5033923;28;46476;-86
2023/10/23 06:29:36;;;;;;;4.83;2.70;;;6.70;58.60;;;;;;5035391;28;46550;-86
2023/10/23 06:32:02;;;;;;;3.40;2.23;;;6.70;58.80;;;;;;5041211;28;46593;-87
2023/10/23 06:34:28;;;;;;;4.30;2.40;;;6.70;58.70;;;;;;5030372;28;46482;-85
2023/10/23 06:36:53;;;;;;;3.87;2.53;;;6.80;58.70;;;;;;5033402;28;46521;-84
2023/10/23 06:39:19;;;;;;;5.20;2.97;;;6.80;58.50;;;;;;5035173;28;46681;-84
2023/10/23 06:41:45;;;;;;;3.30;2.37;;;6.90;58.30;;;;;;5034689;28;46519;-86
2023/10/23 06:44:10;;;;;;;4.90;3.27;;;7.00;58.20;;;;;;5035187;28;48466;-86
2023/10/23 06:46:36;;;;;;;4.33;3.10;;;7.20;58.00;;;;;;5033437;28;46789;-85
2023/10/23 06:49:01;;;;;;;5.47;3.70;;;7.40;57.60;;;;;;5032930;28;47127;-83
2023/10/23 06:51:27;;;;;;;4.30;2.87;;;7.60;56.80;;;;;;5036542;28;46853;-84
2023/10/23 06:53:53;;;;;;;4.10;2.90;;;7.70;56.40;;;;;;5035043;28;46557;-82
2023/10/23 06:56:18;;;;;;;6.37;2.97;;;7.80;56.20;;;;;;5033477;28;46400;-82
2023/10/23 06:58:44;;;;;;;6.70;3.70;;;7.90;56.30;;;;;;5036185;28;46475;-83
2023/10/23 07:01:09;;;;;;;7.00;4.00;;;7.90;56.40;;;;;;5036833;28;46145;-83
2023/10/23 07:03:36;;;;;;;6.80;3.53;;;7.80;56.90;;;;;;5040722;28;49152;-83
2023/10/23 07:06:08;;;;;;;7.93;3.53;;;7.80;57.20;;;;;;5038744;28;46418;-84
2023/10/23 07:08:34;;;;;;;5.47;3.67;;;8.00;57.20;;;;;;5038655;28;46406;-85
2023/10/23 07:11:00;;;;;;;7.43;3.40;;;8.10;57.00;;;;;;5033342;28;46674;-85
2023/10/23 07:13:26;;;;;;;5.83;4.03;;;8.30;56.80;;;;;;5033040;28;46663;-84
2023/10/23 07:15:52;;;;;;;9.67;4.27;;;8.40;56.70;;;;;;5035343;28;46798;-83
2023/10/23 07:18:18;;;;;;;7.70;4.93;;;8.50;56.50;;;;;;5042461;28;46469;-83
2023/10/23 07:20:55;;;;;;;6.70;4.50;;;8.60;56.50;;;;;;5036155;28;46667;-83
2023/10/23 07:23:22;;;;;;;8.80;5.20;;;8.60;56.70;;;;;;5036090;28;46433;-84
2023/10/23 07:25:48;;;;;;;15.03;8.63;;;8.60;57.20;;;;;;5040727;28;46584;-83
2023/10/23 07:28:13;;;;;;;10.23;6.83;;;8.70;57.40;;;;;;5039479;28;46607;-84
2023/10/23 07:30:39;;;;;;;10.27;6.43;;;8.80;58.60;;;;;;5038731;28;45900;-85
2023/10/23 07:33:04;;;;;;;14.23;5.97;;;8.80;57.50;;;;;;5041266;28;46963;-83
2023/10/23 07:35:30;;;;;;;8.33;6.00;;;8.90;57.70;;;;;;5037291;28;46463;-85
2023/10/23 07:37:56;;;;;;;7.53;5.23;;;8.90;57.70;;;;;;5039683;28;46526;-84
2023/10/23 07:40:21;;;;;;;10.20;4.77;;;9.00;57.70;;;;;;5036092;28;46499;-84
2023/10/23 07:42:47;;;;;;;9.63;4.93;;;9.10;57.50;;;;;;5044610;28;48114;-85
2023/10/23 07:45:12;;;;;;;9.40;5.60;;;9.30;57.40;;;;;;5035578;28;46437;-83
2023/10/23 07:47:38;;;;;;;6.03;4.77;;;9.50;57.10;;;;;;5042478;28;46608;-83
2023/10/23 07:50:04;;;;;;;6.40;4.30;;;9.70;56.60;;;;;;5040706;28;46806;-83
2023/10/23 07:52:38;;;;;;;7.33;4.13;;;10.00;55.10;;;;;;5034346;28;46651;-84
2023/10/23 07:55:04;;;;;;;8.40;4.67;;;10.30;54.40;;;;;;5037718;28;46864;-84
2023/10/23 07:57:30;;;;;;;8.47;4.20;;;10.30;54.20;;;;;;5044844;28;46412;-81
2023/10/23 07:59:56;;;;;;;8.40;3.83;;;10.40;54.30;;;;;;5044087;28;46454;-84
2023/10/23 08:02:21;;;;;;;6.00;4.10;;;10.60;54.30;;;;;;5046924;28;46474;-84
2023/10/23 08:04:47;;;;;;;6.90;4.30;;;10.70;54.00;;;;;;5040071;28;46515;-84
2023/10/23 08:07:13;;;;;;;6.97;4.10;;;10.90;53.80;;;;;;5032423;28;46958;-85
2023/10/23 08:09:39;;;;;;;14.33;3.70;;;11.10;53.80;;;;;;5036365;28;47027;-86
2023/10/23 08:12:05;;;;;;;5.10;3.30;;;11.30;53.50;;;;;;5038056;28;48088;-85
2023/10/23 08:14:30;;;;;;;6.30;3.70;;;11.70;53.20;;;;;;5037761;28;46783;-85
2023/10/23 08:16:56;;;;;;;8.90;2.97;;;12.10;52.60;;;;;;5037384;28;46416;-86
2023/10/23 08:19:21;;;;;;;5.20;3.00;;;12.30;51.90;;;;;;5040009;28;46358;-84
2023/10/23 08:21:48;;;;;;;6.00;2.80;;;12.40;51.50;;;;;;5036924;28;46871;-84
2023/10/23 08:24:13;;;;;;;7.53;3.20;;;12.60;51.20;;;;;;5031882;28;46582;-82
2023/10/23 08:26:39;;;;;;;8.27;3.20;;;12.50;51.50;;;;;;5035276;28;46564;-85
2023/10/23 08:29:05;;;;;;;4.50;3.20;;;12.70;51.60;;;;;;5032592;28;46580;-82
2023/10/23 08:31:30;;;;;;;4.90;2.77;;;12.80;51.30;;;;;;5036742;28;46357;-84
2023/10/23 08:33:56;;;;;;;8.90;2.50;;;13.00;50.70;;;;;;5036477;28;46003;-84
2023/10/23 08:36:22;;;;;;;4.90;2.30;;;13.10;50.70;;;;;;5034325;28;46513;-83
2023/10/23 08:38:47;;;;;;;3.90;1.90;;;13.20;50.70;;;;;;5034591;28;46694;-84
2023/10/23 08:41:13;;;;;;;3.07;1.70;;;13.30;50.60;;;;;;5034487;28;47165;-85
2023/10/23 08:43:40;;;;;;;3.97;1.77;;;13.40;50.40;;;;;;5032672;28;46517;-80
2023/10/23 08:46:08;;;;;;;5.03;1.70;;;13.30;50.40;;;;;;5033235;28;46992;-84
2023/10/23 08:48:34;;;;;;;4.40;2.13;;;13.20;48.20;;;;;;5034537;28;46276;-82
2023/10/23 08:50:59;;;;;;;3.03;1.67;;;13.20;49.10;;;;;;5032508;28;49254;-85
2023/10/23 08:53:49;;;;;;;8.37;1.73;;;13.20;48.70;;;;;;5032555;28;46360;-82
2023/10/23 08:56:14;;;;;;;3.30;1.57;;;13.30;48.30;;;;;;5036768;28;46589;-85
2023/10/23 08:58:43;;;;;;;5.67;2.20;;;13.30;47.90;;;;;;5036477;28;47401;-84
2023/10/23 09:01:09;;;;;;;4.63;2.30;;;13.40;47.70;;;;;;5042694;28;48453;-86
2023/10/23 09:03:34;;;;;;;3.10;1.83;;;13.60;47.70;;;;;;5038022;28;46434;-84
2023/10/23 09:06:00;;;;;;;9.80;2.13;;;13.70;46.90;;;;;;5035069;28;46412;-83
2023/10/23 09:08:28;;;;;;;3.20;1.90;;;13.80;45.60;;;;;;5041891;28;45864;-84
2023/10/23 09:11:03;;;;;;;8.47;2.73;;;14.10;45.60;;;;;;5040672;28;46538;-83
2023/10/23 09:13:36;;;;;;;3.10;2.00;;;14.30;45.00;;;;;;5033849;28;46230;-83
2023/10/23 09:16:03;;;;;;;4.70;1.93;;;14.50;42.70;;;;;;5044319;28;47056;-81
2023/10/23 09:18:29;;;;;;;4.83;2.13;;;14.60;42.70;;;;;;5027564;28;46883;-82
2023/10/23 09:20:56;;;;;;;6.17;2.10;;;14.80;42.90;;;;;;5029310;28;46654;-82
2023/10/23 09:23:21;;;;;;;5.90;1.93;;;14.90;41.70;;;;;;5032861;28;46672;-83
2023/10/23 09:25:49;;;;;;;3.70;1.73;;;14.90;38.80;;;;;;5025880;28;45894;-82
2023/10/23 09:28:14;;;;;;;4.30;2.60;;;14.80;39.00;;;;;;5027821;28;46390;-82
2023/10/23 09:30:42;;;;;;;4.20;2.43;;;14.80;38.60;;;;;;5027107;28;48521;-80
2023/10/23 09:33:10;;;;;;;5.10;2.00;;;14.80;38.10;;;;;;5027237;28;46534;-82
2023/10/23 09:35:36;;;;;;;9.07;1.70;;;15.00;38.30;;;;;;5027527;28;46479;-81
2023/10/23 09:38:11;;;;;;;4.33;1.53;;;15.00;38.30;;;;;;5026937;28;46390;-82
2023/10/23 09:40:37;;;;;;;2.90;2.00;;;15.10;37.70;;;;;;5033680;28;48102;-84
2023/10/23 09:43:03;;;;;;;9.90;2.90;;;15.20;37.20;;;;;;5037197;28;46204;-83
2023/10/23 09:45:31;;;;;;;2.70;1.57;;;15.20;37.20;;;;;;5026275;28;46815;-82
2023/10/23 09:47:59;;;;;;;4.77;2.43;;;15.20;36.60;;;;;;5025314;28;46895;-82
2023/10/23 09:50:26;;;;;;;5.37;1.93;;;15.30;35.40;;;;;;5041857;28;48872;-81
2023/10/23 09:52:57;;;;;;;5.37;1.40;;;15.50;35.10;;;;;;5026382;28;46548;-82
2023/10/23 09:55:27;;;;;;;3.53;1.37;;;15.60;34.50;;;;;;5025168;28;45855;-82
2023/10/23 09:57:54;;;;;;;3.37;1.50;;;15.60;34.10;;;;;;5025750;28;46361;-82
2023/10/23 10:00:22;;;;;;;4.90;1.93;;;15.80;33.80;;;;;;5024400;28;49162;-83
2023/10/23 10:02:58;;;;;;;3.60;1.80;;;16.00;33.80;;;;;;5026998;28;45953;-82
2023/10/23 10:05:44;;;;;;;2.80;1.53;;;16.20;32.30;;;;;;5027860;28;46538;-83
2023/10/23 10:08:14;;;;;;;3.83;1.63;;;16.10;32.70;;;;;;5029567;28;46839;-80
2023/10/23 10:10:41;;;;;;;2.70;1.43;;;16.10;32.30;;;;;;5025919;28;48271;-83
2023/10/23 10:13:09;;;;;;;3.97;1.50;;;16.10;32.20;;;;;;5029930;28;46823;-82
2023/10/23 10:15:35;;;;;;;3.53;1.30;;;16.10;32.00;;;;;;5032876;28;46784;-82
2023/10/23 10:18:00;;;;;;;6.00;1.30;;;16.30;31.60;;;;;;5032370;28;45970;-82
2023/10/23 10:20:27;;;;;;;5.70;1.70;;;16.20;31.00;;;;;;5034446;28;48628;-83
2023/10/23 10:23:12;;;;;;;4.97;1.30;;;16.10;31.20;;;;;;5032354;28;46450;-83
2023/10/23 10:25:39;;;;;;;8.20;1.50;;;16.00;31.20;;;;;;5042161;28;47040;-84
2023/10/23 10:28:07;;;;;;;3.00;1.20;;;16.00;31.30;;;;;;5035556;28;46571;-83
2023/10/23 10:30:40;;;;;;;5.00;1.70;;;16.20;31.60;;;;;;5035510;28;48371;-83
2023/10/23 10:33:08;;;;;;;5.00;1.67;;;16.00;31.30;;;;;;5036269;28;46411;-83
2023/10/23 10:35:34;;;;;;;9.00;2.77;;;16.10;31.60;;;;;;5033481;28;46619;-80
2023/10/23 10:38:00;;;;;;;5.70;1.87;;;16.00;31.70;;;;;;5031529;28;46790;-83
2023/10/23 10:40:26;;;;;;;3.70;1.60;;;15.90;32.20;;;;;;5030302;28;48804;-82
2023/10/23 10:42:55;;;;;;;5.23;1.83;;;15.90;32.10;;;;;;5033070;28;45807;-82
2023/10/23 10:45:21;;;;;;;5.10;1.50;;;16.00;32.10;;;;;;5035726;28;46475;-85
2023/10/23 10:47:54;;;;;;;4.83;1.70;;;16.00;32.00;;;;;;5036497;28;46741;-85
2023/10/23 10:50:38;;;;;;;4.23;1.40;;;15.90;32.00;;;;;;5033029;28;48681;-85
2023/10/23 10:53:06;;;;;;;8.10;1.73;;;15.90;31.80;;;;;;5035382;28;46567;-84
2023/10/23 10:55:33;;;;;;;3.27;1.70;;;16.00;31.40;;;;;;5035986;28;47020;-84
2023/10/23 10:57:59;;;;;;;2.43;1.30;;;16.10;31.00;;;;;;5038194;28;47424;-84
2023/10/23 11:00:29;;;;;;;2.83;1.60;;;16.30;30.60;;;;;;5034969;28;46523;-83
2023/10/23 11:02:55;;;;;;;3.33;1.30;;;16.50;30.90;;;;;;5039526;28;46415;-84
2023/10/23 11:05:20;;;;;;;5.63;1.73;;;16.60;30.90;;;;;;5030291;28;46451;-82
2023/10/23 11:07:47;;;;;;;3.17;1.50;;;16.70;30.50;;;;;;5030234;28;46436;-83
2023/10/23 11:10:13;;;;;;;4.37;1.80;;;16.70;30.90;;;;;;5028352;28;48437;-80
2023/10/23 11:12:40;;;;;;;4.03;1.33;;;16.70;30.00;;;;;;5032570;28;46518;-82
2023/10/23 11:15:06;;;;;;;7.03;1.50;;;16.80;29.90;;;;;;5030815;28;46841;-81
2023/10/23 11:17:32;;;;;;;4.33;1.57;;;16.90;29.80;;;;;;5030163;28;46838;-84
2023/10/23 11:20:03;;;;;;;4.23;1.50;;;16.90;29.30;;;;;;5026465;28;46443;-86
2023/10/23 11:22:29;;;;;;;2.63;1.33;;;16.80;29.00;;;;;;5032083;28;46793;-87
2023/10/23 11:24:55;;;;;;;5.37;1.50;;;16.80;28.80;;;;;;5033934;28;46421;-81
2023/10/23 11:27:21;;;;;;;2.20;1.10;;;16.80;28.90;;;;;;5033612;28;46760;-82
2023/10/23 11:29:47;;;;;;;3.67;1.50;;;16.80;28.70;;;;;;5031298;28;46838;-80
2023/10/23 11:32:14;;;;;;;5.87;1.63;;;16.80;28.70;;;;;;5037549;28;45899;-84
2023/10/23 11:34:41;;;;;;;5.57;1.80;;;16.70;28.40;;;;;;5031410;28;47551;-83
2023/10/23 11:37:08;;;;;;;7.80;1.67;;;16.70;28.40;;;;;;5032367;28;47213;-82
2023/10/23 11:39:35;;;;;;;3.27;1.50;;;16.60;28.20;;;;;;5030292;28;46553;-83
2023/10/23 11:42:02;;;;;;;2.40;1.20;;;16.60;28.10;;;;;;5031942;28;46478;-83
2023/10/23 11:44:30;;;;;;;2.73;1.37;;;16.50;28.50;;;;;;5030983;28;46736;-82
2023/10/23 11:46:58;;;;;;;3.73;1.30;;;16.50;28.40;;;;;;5033464;28;46454;-86
2023/10/23 11:49:24;;;;;;;4.43;1.30;;;16.50;28.10;;;;;;5032333;28;47486;-83
2023/10/23 11:51:51;;;;;;;4.00;1.70;;;16.60;28.50;;;;;;5036795;28;46532;-82
2023/10/23 11:54:17;;;;;;;3.20;1.83;;;16.50;28.50;;;;;;5031566;28;46757;-82
2023/10/23 11:56:44;;;;;;;4.23;2.03;;;16.50;28.60;;;;;;5030760;28;47022;-82
2023/10/23 11:59:17;;;;;;;4.20;2.37;;;16.50;28.80;;;;;;5029533;28;48026;-83
2023/10/23 12:01:43;;;;;;;5.50;2.27;;;16.30;29.70;;;;;;5032373;28;46380;-82
2023/10/23 12:04:10;;;;;;;3.80;2.50;;;16.00;30.40;;;;;;5030970;28;47377;-82
2023/10/23 12:06:36;;;;;;;4.20;2.20;;;15.80;30.60;;;;;;5039760;28;46506;-82
2023/10/23 12:09:02;;;;;;;2.93;1.40;;;15.70;31.20;;;;;;5032936;28;46874;-82
2023/10/23 12:11:29;;;;;;;5.30;2.00;;;15.80;31.20;;;;;;5034324;28;46476;-83
2023/10/23 12:13:54;;;;;;;4.30;2.00;;;15.70;30.70;;;;;;5033134;28;46745;-81
2023/10/23 12:16:20;;;;;;;5.00;1.70;;;15.70;30.00;;;;;;5030061;28;47068;-84
2023/10/23 12:18:45;;;;;;;9.03;2.50;;;15.80;30.10;;;;;;5031523;28;47185;-82
2023/10/23 12:21:12;;;;;;;4.83;2.40;;;16.00;30.30;;;;;;5032048;28;46970;-83
2023/10/23 12:23:38;;;;;;;6.10;2.70;;;16.00;30.30;;;;;;5032992;28;45901;-82
2023/10/23 12:26:03;;;;;;;5.03;2.43;;;16.10;30.40;;;;;;5033707;28;46538;-83
2023/10/23 12:28:29;;;;;;;4.30;2.43;;;16.20;30.50;;;;;;5038915;28;48119;-84
2023/10/23 12:30:55;;;;;;;4.13;2.17;;;16.40;30.80;;;;;;5033819;28;46378;-83
2023/10/23 12:33:20;;;;;;;5.33;1.90;;;16.50;30.80;;;;;;5038375;28;46720;-80
2023/10/23 12:35:46;;;;;;;3.20;1.70;;;16.60;30.80;;;;;;5038383;28;46932;-85
2023/10/23 12:38:12;;;;;;;3.33;1.70;;;16.80;30.50;;;;;;5035196;28;48418;-85
2023/10/23 12:40:43;;;;;;;3.70;1.77;;;17.00;30.00;;;;;;5034801;28;46630;-82
2023/10/23 12:43:09;;;;;;;3.93;2.00;;;16.90;29.70;;;;;;5039242;28;46390;-83
2023/10/23 12:45:34;;;;;;;6.00;1.90;;;17.00;29.50;;;;;;5037354;28;46153;-82
2023/10/23 12:48:00;;;;;;;4.33;2.03;;;17.00;29.10;;;;;;5042358;28;48026;-82
2023/10/23 12:50:26;;;;;;;6.43;1.77;;;16.90;29.00;;;;;;5032938;28;46501;-84